Time;durP1;ratioP1;P1;durP2;ratioP2;P2;SDS_P1;SDS_P2;PMS_P1;PMS_P2;Temp;Humidity;BMP_temperature;BMP_pressure;BME280_temperature;BME280_humidity;BME280_pressure;Samples;Min_cycle;Max_cycle;Signal;HPM_P1;HPM_P2
2023/10/25 00:00:49;;;;;;;;;;;;;;;8.66;100.00;99940.63;4937266;28;19930;-75
2023/10/25 00:03:35;;;;;;;;;;;;;;;8.65;100.00;99933.63;4938190;28;19934;-76
2023/10/25 00:06:21;;;;;;;;;;;;;;;8.63;100.00;99941.66;4941265;28;19935;-77
2023/10/25 00:09:06;;;;;;;;;;;;;;;8.61;100.00;99953.19;4927825;28;20040;-76
2023/10/25 00:11:54;;;;;;;;;;;;;;;8.59;100.00;99948.00;4925977;29;19938;-75
2023/10/25 00:14:41;;;;;;;;;;;;;;;8.56;100.00;99949.00;4922202;29;19976;-76
2023/10/25 00:17:26;;;;;;;;;;;;;;;8.56;100.00;99950.81;4941144;28;19931;-76
2023/10/25 00:20:12;;;;;;;;;;;;;;;8.52;100.00;99947.47;4939461;29;20312;-76
2023/10/25 00:22:58;;;;;;;;;;;;;;;8.50;100.00;99954.56;4926672;28;19934;-76
2023/10/25 00:25:43;;;;;;;;;;;;;;;8.47;100.00;99954.72;4938393;28;19931;-77
2023/10/25 00:28:29;;;;;;;;;;;;;;;8.44;100.00;99957.50;4922689;29;19922;-76
2023/10/25 00:31:15;;;;;;;;;;;;;;;8.42;100.00;99956.75;4941243;28;19941;-77
2023/10/25 00:34:00;;;;;;;;;;;;;;;8.40;100.00;99958.63;4940657;28;19998;-76
2023/10/25 00:36:46;;;;;;;;;;;;;;;8.38;100.00;99958.69;4925308;29;19981;-77
2023/10/25 00:39:32;;;;;;;;;;;;;;;8.36;100.00;99955.28;4939505;28;19933;-76
2023/10/25 00:42:17;;;;;;;;;;;;;;;8.35;100.00;99957.97;4921238;29;19935;-77
2023/10/25 00:45:03;;;;;;;;;;;;;;;8.32;100.00;99964.25;4922310;29;19943;-77
2023/10/25 00:47:49;;;;;;;;;;;;;;;8.31;100.00;99961.69;4937040;28;20642;-76
2023/10/25 00:50:34;;;;;;;;;;;;;;;8.31;100.00;99959.91;4938304;29;19982;-75
2023/10/25 00:53:20;;;;;;;;;;;;;;;8.31;100.00;99964.31;4908519;28;19937;-77
2023/10/25 00:56:06;;;;;;;;;;;;;;;8.29;100.00;99962.63;4923392;29;19935;-76
2023/10/25 00:58:52;;;;;;;;;;;;;;;8.28;100.00;99960.06;4923477;29;20144;-77
2023/10/25 01:01:38;;;;;;;;;;;;;;;8.28;100.00;99960.94;4920304;28;19988;-76
2023/10/25 01:04:23;;;;;;;;;;;;;;;8.29;100.00;99962.63;4939843;28;20281;-77
2023/10/25 01:07:09;;;;;;;;;;;;;;;8.29;100.00;99956.53;4938394;28;19969;-77
2023/10/25 01:09:55;;;;;;;;;;;;;;;8.29;100.00;99956.53;4940559;28;20473;-77
2023/10/25 01:12:40;;;;;;;;;;;;;;;8.29;100.00;99957.34;4944028;29;19930;-77
2023/10/25 01:15:26;;;;;;;;;;;;;;;8.28;100.00;99955.66;4942765;28;20581;-75
2023/10/25 01:18:12;;;;;;;;;;;;;;;8.28;100.00;99953.00;4944427;28;19972;-76
2023/10/25 01:20:57;;;;;;;;;;;;;;;8.30;100.00;99947.66;4942796;29;19949;-76
2023/10/25 01:23:43;;;;;;;;;;;;;;;8.32;100.00;99944.97;4943519;28;19935;-77
2023/10/25 01:26:29;;;;;;;;;;;;;;;8.36;100.00;99949.13;4943773;28;20045;-77
2023/10/25 01:29:14;;;;;;;;;;;;;;;8.38;100.00;99950.75;4943087;28;19934;-77
2023/10/25 01:32:00;;;;;;;;;;;;;;;8.39;100.00;99951.63;4942346;29;20208;-75
2023/10/25 01:34:46;;;;;;;;;;;;;;;8.38;100.00;99955.19;4926526;29;20290;-76
2023/10/25 01:37:31;;;;;;;;;;;;;;;8.37;100.00;99954.34;4940620;28;20297;-75
2023/10/25 01:40:17;;;;;;;;;;;;;;;8.36;100.00;99954.41;4941593;29;22117;-77
2023/10/25 01:43:02;;;;;;;;;;;;;;;8.34;100.00;99953.66;4941362;28;19937;-77
2023/10/25 01:45:49;;;;;;;;;;;;;;;8.28;100.00;99953.00;4942313;28;19934;-76
2023/10/25 01:48:36;;;;;;;;;;;;;;;8.26;100.00;99959.28;4939216;28;19986;-75
2023/10/25 01:51:21;;;;;;;;;;;;;;;8.20;100.00;99952.53;4939626;29;19930;-76
2023/10/25 01:54:07;;;;;;;;;;;;;;;8.17;100.00;99955.31;4936546;28;19935;-76
2023/10/25 01:56:52;;;;;;;;;;;;;;;8.13;100.00;99951.16;4941780;28;19934;-75
2023/10/25 01:59:38;;;;;;;;;;;;;;;8.11;100.00;99951.22;4942098;28;19986;-76
2023/10/25 02:02:24;;;;;;;;;;;;;;;8.10;100.00;99940.75;4939024;29;20028;-77
2023/10/25 02:05:10;;;;;;;;;;;;;;;8.06;100.00;99949.75;4926297;29;19930;-76
2023/10/25 02:07:55;;;;;;;;;;;;;;;8.04;100.00;99951.59;4941780;28;19937;-77
2023/10/25 02:10:41;;;;;;;;;;;;;;;8.00;100.00;99949.13;4943449;29;19941;-77
2023/10/25 02:13:27;;;;;;;;;;;;;;;7.98;100.00;99948.34;4943094;29;20011;-76
2023/10/25 02:16:13;;;;;;;;;;;;;;;8.00;100.00;99950.88;4943499;28;19982;-76
2023/10/25 02:18:59;;;;;;;;;;;;;;;8.00;100.00;99945.59;4939930;29;19930;-76
2023/10/25 02:21:45;;;;;;;;;;;;;;;8.01;100.00;99937.63;4943482;28;19981;-76
2023/10/25 02:24:31;;;;;;;;;;;;;;;8.01;100.00;99932.38;4944238;28;20062;-77
2023/10/25 02:27:16;;;;;;;;;;;;;;;8.03;100.00;99934.94;4944681;28;20390;-76
2023/10/25 02:30:05;;;;;;;;;;;;;;;8.05;100.00;99934.88;4926393;29;20453;-77
2023/10/25 02:32:53;;;;;;;;;;;;;;;8.06;100.00;99939.19;4941147;28;19966;-77
2023/10/25 02:35:39;;;;;;;;;;;;;;;8.05;100.00;99935.69;4938175;28;19937;-76
2023/10/25 02:38:25;;;;;;;;;;;;;;;8.03;100.00;99942.84;4938681;28;19978;-75
2023/10/25 02:41:10;;;;;;;;;;;;;;;7.98;100.00;99932.53;4938770;28;20020;-76
2023/10/25 02:43:59;;;;;;;;;;;;;;;7.92;100.00;99935.47;4925619;28;19926;-76
2023/10/25 02:46:45;;;;;;;;;;;;;;;7.85;100.00;99926.16;4937541;28;19990;-77
2023/10/25 02:49:31;;;;;;;;;;;;;;;7.79;100.00;99929.09;4923302;29;20543;-76
2023/10/25 02:52:17;;;;;;;;;;;;;;;7.73;100.00;99927.56;4926648;28;20427;-77
2023/10/25 02:55:03;;;;;;;;;;;;;;;7.68;100.00;99929.59;4918093;29;19926;-77
2023/10/25 02:57:48;;;;;;;;;;;;;;;7.65;100.00;99913.91;4925781;28;19945;-78
2023/10/25 03:00:34;;;;;;;;;;;;;;;7.60;100.00;99919.41;4940284;28;19937;-76
2023/10/25 03:03:20;;;;;;;;;;;;;;;7.56;100.00;99915.22;4937091;29;19945;-78
2023/10/25 03:06:05;;;;;;;;;;;;;;;7.51;100.00;99912.81;4939271;28;19935;-76
2023/10/25 03:08:51;;;;;;;;;;;;;;;7.45;100.00;99908.69;4925844;29;19969;-76
2023/10/25 03:11:37;;;;;;;;;;;;;;;7.41;100.00;99899.22;4922998;29;19982;-77
2023/10/25 03:14:23;;;;;;;;;;;;;;;7.37;100.00;99900.31;4940361;28;19938;-77
2023/10/25 03:17:09;;;;;;;;;;;;;;;7.34;100.00;99903.06;4939334;29;20864;-77
2023/10/25 03:19:54;;;;;;;;;;;;;;;7.29;100.00;99905.91;4924247;29;20020;-77
2023/10/25 03:22:40;;;;;;;;;;;;;;;7.27;100.00;99899.00;4920074;29;19927;-77
2023/10/25 03:25:26;;;;;;;;;;;;;;;7.24;100.00;99897.38;4938127;28;19969;-77
2023/10/25 03:28:11;;;;;;;;;;;;;;;7.21;100.00;99905.44;4940271;28;19938;-77
2023/10/25 03:30:57;;;;;;;;;;;;;;;7.19;100.00;99910.75;4940924;28;19938;-77
2023/10/25 03:33:44;;;;;;;;;;;;;;;7.18;100.00;99905.56;4940348;28;19930;-77
2023/10/25 03:36:30;;;;;;;;;;;;;;;7.16;100.00;99908.28;4921633;29;19937;-77
2023/10/25 03:39:15;;;;;;;;;;;;;;;7.15;100.00;99896.00;4940031;28;20029;-76
2023/10/25 03:42:01;;;;;;;;;;;;;;;7.14;100.00;99898.75;4926323;29;19926;-76
2023/10/25 03:44:46;;;;;;;;;;;;;;;7.13;100.00;99897.88;4922247;29;20096;-77
2023/10/25 03:47:34;;;;;;;;;;;;;;;7.13;100.00;99892.59;4924017;29;19934;-76
2023/10/25 03:50:20;;;;;;;;;;;;;;;7.11;100.00;99894.47;4922704;29;20398;-77
2023/10/25 03:53:05;;;;;;;;;;;;;;;7.10;100.00;99895.41;4937540;28;19942;-77
2023/10/25 03:55:55;;;;;;;;;;;;;;;7.10;100.00;99884.00;4938613;29;20025;-76
2023/10/25 03:58:40;;;;;;;;;;;;;;;7.09;100.00;99879.66;4921968;28;19931;-76
2023/10/25 04:01:26;;;;;;;;;;;;;;;7.08;100.00;99881.44;4939812;28;20610;-77
2023/10/25 04:04:15;;;;;;;;;;;;;;;7.05;100.00;99874.56;4936731;29;20404;-77
2023/10/25 04:07:00;;;;;;;;;;;;;;;7.03;100.00;99873.75;4936879;28;19965;-77
2023/10/25 04:09:46;;;;;;;;;;;;;;;7.02;100.00;99879.09;4938188;29;21026;-77
2023/10/25 04:12:31;;;;;;;;;;;;;;;7.00;100.00;99880.94;4937524;29;20325;-77
2023/10/25 04:15:17;;;;;;;;;;;;;;;6.98;100.00;99875.72;4939310;28;20317;-76
2023/10/25 04:18:04;;;;;;;;;;;;;;;6.96;100.00;99871.50;4938217;29;19930;-77
2023/10/25 04:20:50;;;;;;;;;;;;;;;6.92;100.00;99871.63;4939690;28;19934;-76
2023/10/25 04:23:36;;;;;;;;;;;;;;;6.91;100.00;99874.31;4925259;29;19931;-77
2023/10/25 04:26:22;;;;;;;;;;;;;;;6.86;100.00;99871.91;4924291;29;19934;-77
2023/10/25 04:29:09;;;;;;;;;;;;;;;6.83;100.00;99872.06;4940618;28;19931;-77
2023/10/25 04:31:56;;;;;;;;;;;;;;;6.81;100.00;99871.25;4938413;29;19957;-78
2023/10/25 04:34:41;;;;;;;;;;;;;;;6.76;100.00;99871.47;4939529;28;19930;-77
2023/10/25 04:37:27;;;;;;;;;;;;;;;6.74;100.00;99875.94;4920980;29;19961;-77
2023/10/25 04:40:13;;;;;;;;;;;;;;;6.71;100.00;99867.34;4940011;28;20021;-76
2023/10/25 04:42:58;;;;;;;;;;;;;;;6.69;100.00;99877.09;4939778;29;19927;-75
2023/10/25 04:45:44;;;;;;;;;;;;;;;6.65;100.00;99871.94;4937933;28;19958;-77
2023/10/25 04:48:30;;;;;;;;;;;;;;;6.63;100.00;99881.69;4940921;29;20095;-76
2023/10/25 04:51:15;;;;;;;;;;;;;;;6.62;100.00;99879.13;4943108;28;20029;-78
2023/10/25 04:54:01;;;;;;;;;;;;;;;6.60;100.00;99878.34;4927819;28;19934;-77
2023/10/25 04:56:46;;;;;;;;;;;;;;;6.57;100.00;99868.81;4943729;28;20682;-76
2023/10/25 04:59:32;;;;;;;;;;;;;;;6.54;100.00;99868.94;4943481;28;20319;-77
2023/10/25 05:02:18;;;;;;;;;;;;;;;6.52;100.00;99865.53;4944275;28;19930;-76
2023/10/25 05:05:05;;;;;;;;;;;;;;;6.50;100.00;99870.84;4941867;28;19930;-77
2023/10/25 05:07:51;;;;;;;;;;;;;;;6.48;100.00;99858.72;4942871;29;20006;-77
2023/10/25 05:10:37;;;;;;;;;;;;;;;6.47;100.00;99852.56;4927886;29;19930;-76
2023/10/25 05:13:23;;;;;;;;;;;;;;;6.45;100.00;99853.56;4926002;29;20006;-78
2023/10/25 05:16:09;;;;;;;;;;;;;;;6.44;100.00;99849.22;4926434;29;19930;-77
2023/10/25 05:18:54;;;;;;;;;;;;;;;6.43;100.00;99839.63;4943174;28;19941;-77
2023/10/25 05:21:42;;;;;;;;;;;;;;;6.40;100.00;99840.63;4942172;28;20050;-77
2023/10/25 05:24:28;;;;;;;;;;;;;;;6.38;100.00;99843.31;4942623;29;19968;-76
2023/10/25 05:27:19;;;;;;;;;;;;;;;6.39;100.00;99838.91;4927031;29;20542;-75
2023/10/25 05:30:07;;;;;;;;;;;;;;;6.37;100.00;99841.63;4927054;29;19926;-76
2023/10/25 05:32:53;;;;;;;;;;;;;;;6.38;100.00;99835.44;4943528;29;19935;-76
2023/10/25 05:35:39;;;;;;;;;;;;;;;6.38;100.00;99835.44;4926585;28;19930;-76
2023/10/25 05:38:25;;;;;;;;;;;;;;;6.37;100.00;99836.34;4926719;29;19926;-77
2023/10/25 05:41:18;;;;;;;;;;;;;;;6.35;100.00;99830.31;4943010;28;20984;-76
2023/10/25 05:44:07;;;;;;;;;;;;;;;6.34;100.00;99839.13;4926043;29;19978;-76
2023/10/25 05:46:53;;;;;;;;;;;;;;;6.30;100.00;99834.03;4938223;29;19989;-77
2023/10/25 05:49:39;;;;;;;;;;;;;;;6.27;100.00;99844.72;4926496;29;19941;-76
2023/10/25 05:52:25;;;;;;;;;;;;;;;6.24;100.00;99851.81;4941720;29;20419;-77
2023/10/25 05:55:16;;;;;;;;;;;;;;;6.23;100.00;99849.25;4940211;28;19930;-76
2023/10/25 05:58:02;;;;;;;;;;;;;;;6.21;100.00;99854.56;4938763;28;19985;-77
2023/10/25 06:00:52;;;;;;;;;;;;;;;6.20;100.00;99858.13;4925852;29;20025;-77
2023/10/25 06:03:39;;;;;;;;;;;;;;;6.19;100.00;99858.16;4931189;28;19937;-77
2023/10/25 06:06:25;;;;;;;;;;;;;;;6.18;100.00;99852.09;4910200;28;19931;-77
2023/10/25 06:09:11;;;;;;;;;;;;;;;6.19;100.00;99858.16;4923306;29;20049;-77
2023/10/25 06:11:57;;;;;;;;;;;;;;;6.20;100.00;99850.22;4923615;29;19934;-77
2023/10/25 06:14:43;;;;;;;;;;;;;;;6.22;100.00;99858.06;4925451;28;19927;-77
2023/10/25 06:17:28;;;;;;;;;;;;;;;6.24;100.00;99854.44;4939614;28;19993;-77
2023/10/25 06:20:19;;;;;;;;;;;;;;;6.27;100.00;99853.47;4939372;28;19937;-77
2023/10/25 06:23:05;;;;;;;;;;;;;;;6.26;100.00;99854.34;4937864;28;20469;-77
2023/10/25 06:25:51;;;;;;;;;;;;;;;6.25;100.00;99855.28;4912589;29;19922;-77
2023/10/25 06:28:38;;;;;;;;;;;;;;;6.23;100.00;99854.50;4938031;28;20218;-77
2023/10/25 06:31:24;;;;;;;;;;;;;;;6.20;100.00;99850.22;4940512;28;19930;-77
2023/10/25 06:34:09;;;;;;;;;;;;;;;6.18;100.00;99851.22;4939353;28;20059;-77
2023/10/25 06:36:58;;;;;;;;;;;;;;;6.19;100.00;99850.28;4943247;28;20448;-78
2023/10/25 06:39:43;;;;;;;;;;;;;;;6.18;100.00;99848.59;4942044;28;19938;-76
2023/10/25 06:42:29;;;;;;;;;;;;;;;6.16;100.00;99848.66;4940328;28;20976;-75
2023/10/25 06:45:15;;;;;;;;;;;;;;;6.14;100.00;99844.41;4938567;28;20028;-77
2023/10/25 06:48:01;;;;;;;;;;;;;;;6.14;100.00;99844.41;4935946;28;19926;-78
2023/10/25 06:50:47;;;;;;;;;;;;;;;6.13;100.00;99846.16;4937908;28;20468;-78
2023/10/25 06:53:33;;;;;;;;;;;;;;;6.14;100.00;99845.22;4935225;28;19957;-78
2023/10/25 06:56:19;;;;;;;;;;;;;;;6.14;100.00;99847.03;4938863;28;19930;-80
2023/10/25 06:59:06;;;;;;;;;;;;;;;6.14;100.00;99844.41;4924142;29;19993;-80
2023/10/25 07:01:53;;;;;;;;;;;;;;;6.13;100.00;99843.53;4939437;28;19934;-79
2023/10/25 07:04:40;;;;;;;;;;;;;;;6.11;100.00;99848.84;4940111;28;19930;-79
2023/10/25 07:07:25;;;;;;;;;;;;;;;6.13;100.00;99847.91;4942671;28;19934;-80
2023/10/25 07:10:11;;;;;;;;;;;;;;;6.14;100.00;99839.16;4924142;28;19927;-79
2023/10/25 07:12:59;;;;;;;;;;;;;;;6.13;100.00;99843.53;4936898;28;19953;-80
2023/10/25 07:15:44;;;;;;;;;;;;;;;6.12;100.00;99847.09;4940603;28;20538;-80
2023/10/25 07:18:30;;;;;;;;;;;;;;;6.11;100.00;99843.59;4938755;28;19926;-80
2023/10/25 07:21:16;;;;;;;;;;;;;;;6.08;100.00;99843.75;4943107;28;19974;-79
2023/10/25 07:24:01;;;;;;;;;;;;;;;6.08;100.00;99840.25;4943846;28;19938;-80
2023/10/25 07:26:47;;;;;;;;;;;;;;;6.04;100.00;99839.53;4943418;28;19937;-80
2023/10/25 07:29:36;;;;;;;;;;;;;;;6.02;100.00;99840.47;4943419;28;20677;-79
2023/10/25 07:32:27;;;;;;;;;;;;;;;5.98;100.00;99835.34;5014869;27;1983094;-78
2023/10/25 07:35:13;;;;;;;;;;;;;;;5.95;100.00;99835.47;5075907;28;19932;-78
2023/10/25 07:37:58;;;;;;;;;;;;;;;5.94;100.00;99841.66;5071458;28;19965;-78
2023/10/25 07:40:49;;;;;;;;;;;;;;;5.93;100.00;99836.44;5071321;28;19939;-77
2023/10/25 07:43:34;;;;;;;;;;;;;;;5.92;100.00;99851.38;5055378;28;19952;-78
2023/10/25 07:46:20;;;;;;;;;;;;;;;5.93;100.00;99841.69;5043115;28;20295;-78
2023/10/25 07:49:06;;;;;;;;;;;;;;;5.95;100.00;99853.03;5071577;28;20026;-79
2023/10/25 07:51:54;;;;;;;;;;;;;;;5.97;100.00;99843.28;5076301;28;19963;-78
2023/10/25 07:54:40;;;;;;;;;;;;;;;6.01;100.00;99839.63;5062146;28;19928;-78
2023/10/25 07:57:28;;;;;;;;;;;;;;;6.04;100.00;99834.25;5079086;28;19935;-79
2023/10/25 08:00:17;;;;;;;;;;;;;;;6.09;100.00;99834.94;5058119;28;19952;-80
2023/10/25 08:03:03;;;;;;;;;;;;;;;6.14;100.00;99833.88;5045613;28;19937;-80
2023/10/25 08:05:48;;;;;;;;;;;;;;;6.20;100.00;99823.06;5057436;28;19994;-79
2023/10/25 08:08:34;;;;;;;;;;;;;;;6.27;100.00;99818.44;5051689;28;19931;-80
2023/10/25 08:11:20;;;;;;;;;;;;;;;6.34;100.00;99812.84;5054489;28;19928;-80
2023/10/25 08:14:05;;;;;;;;;;;;;;;6.42;100.00;99816.91;5042307;28;19924;-80
2023/10/25 08:16:51;;;;;;;;;;;;;;;6.48;100.00;99806.13;5053908;28;19920;-79
2023/10/25 08:19:37;;;;;;;;;;;;;;;6.54;100.00;99805.81;5043407;28;19929;-79
2023/10/25 08:22:25;;;;;;;;;;;;;;;6.63;100.00;99808.03;5056123;28;20128;-79
2023/10/25 08:25:14;;;;;;;;;;;;;;;6.70;100.00;99808.59;5037458;28;19939;-76
2023/10/25 08:28:00;;;;;;;;;;;;;;;6.77;100.00;99796.03;5030424;28;20117;-78
2023/10/25 08:30:45;;;;;;;;;;;;;;;6.84;100.00;99812.38;5044616;28;21312;-80
2023/10/25 08:33:33;;;;;;;;;;;;;;;6.91;100.00;99813.78;5033390;28;19924;-79
2023/10/25 08:36:20;;;;;;;;;;;;;;;6.98;100.00;99809.94;5053868;28;19932;-80
2023/10/25 08:39:06;;;;;;;;;;;;;;;7.06;100.00;99820.13;5056668;28;19928;-79
2023/10/25 08:41:52;;;;;;;;;;;;;;;7.12;100.00;99822.47;5052671;28;19952;-79
2023/10/25 08:44:40;;;;;;;;;;;;;;;7.17;100.00;99815.22;5020256;28;20284;-78
2023/10/25 08:47:26;;;;;;;;;;;;;;;7.24;100.00;99814.91;5015048;28;19936;-78
2023/10/25 08:50:19;;;;;;;;;;;;;;;7.30;100.00;99809.38;5030124;28;19959;-78
2023/10/25 08:53:04;;;;;;;;;;;;;;;7.35;100.00;99802.06;5019547;28;19925;-79
2023/10/25 08:55:50;;;;;;;;;;;;;;;7.40;100.00;99799.25;5030217;28;19941;-79
2023/10/25 08:58:39;;;;;;;;;;;;;;;7.45;100.00;99807.75;5032098;28;20775;-78
2023/10/25 09:01:24;;;;;;;;;;;;;;;7.48;100.00;99800.53;5034048;28;19933;-77
2023/10/25 09:04:10;;;;;;;;;;;;;;;7.54;100.00;99801.19;5031660;28;19979;-76
2023/10/25 09:06:56;;;;;;;;;;;;;;;7.59;100.00;99805.28;5000479;28;19928;-78
2023/10/25 09:09:42;;;;;;;;;;;;;;;7.66;100.00;99800.56;5028344;28;19925;-78
2023/10/25 09:12:27;;;;;;;;;;;;;;;7.71;100.00;99797.69;5026349;28;20414;-78
2023/10/25 09:15:13;;;;;;;;;;;;;;;7.74;100.00;99798.41;5026685;28;20023;-79
2023/10/25 09:18:00;;;;;;;;;;;;;;;7.77;100.00;99797.41;5029897;28;19951;-79
2023/10/25 09:20:49;;;;;;;;;;;;;;;7.76;100.00;99798.31;5029146;28;19998;-78
2023/10/25 09:23:35;;;;;;;;;;;;;;;7.78;100.00;99798.25;5034893;28;19952;-78
2023/10/25 09:26:22;;;;;;;;;;;;;;;7.79;100.00;99795.53;5019500;28;19928;-77
2023/10/25 09:29:09;;;;;;;;;;;;;;;7.82;100.00;99789.25;5039446;28;19924;-78
2023/10/25 09:32:04;;;;;;;;;;;;;;;7.84;100.00;99793.50;5022832;28;20376;-78
2023/10/25 09:34:50;;;;;;;;;;;;;;;7.86;100.00;99786.38;5038473;28;19927;-78
2023/10/25 09:37:36;;;;;;;;;;;;;;;7.91;100.00;99793.22;5036454;28;20711;-78
2023/10/25 09:40:24;;;;;;;;;;;;;;;7.93;100.00;99786.94;5035430;28;19933;-79
2023/10/25 09:43:14;;;;;;;;;;;;;;;7.97;100.00;99785.84;5004905;28;20098;-78
2023/10/25 09:46:02;;;;;;;;;;;;;;;8.01;100.00;99787.38;5035741;28;19939;-78
2023/10/25 09:48:58;;;;;;;;;;;;;;;8.10;100.00;99779.91;5017155;28;19944;-78
2023/10/25 09:51:54;;;;;;;;;;;;;;;8.15;100.00;99778.78;5009636;28;19928;-77
2023/10/25 09:54:48;;;;;;;;;;;;;;;8.22;100.00;99775.81;5034502;28;20563;-78
2023/10/25 09:57:34;;;;;;;;;;;;;;;8.28;100.00;99771.06;5040926;28;19990;-77
2023/10/25 10:00:20;;;;;;;;;;;;;;;8.33;100.00;99772.59;5038975;28;20089;-79
2023/10/25 10:03:30;;;;;;;;;;;;;;;8.36;100.00;99761.88;5021212;28;19927;-80
2023/10/25 10:06:22;;;;;;;;;;;;;;;8.42;100.00;99758.91;5016316;28;19929;-79
2023/10/25 10:09:26;;;;;;;;;;;;;;;8.49;100.00;99756.81;5028029;28;20569;-81
2023/10/25 10:12:12;;;;;;;;;;;;;;;8.55;100.00;99745.94;5043152;28;20033;-80
2023/10/25 10:14:58;;;;;;;;;;;;;;;8.59;100.00;99747.47;5022688;28;20029;-80
2023/10/25 10:17:44;;;;;;;;;;;;;;;8.65;100.00;99746.28;5037758;28;19967;-80
2023/10/25 10:20:30;;;;;;;;;;;;;;;8.72;100.00;99737.09;5023572;28;20407;-80
2023/10/25 10:23:17;;;;;;;;;;;;;;;8.76;100.00;99733.34;5025041;28;21399;-80
2023/10/25 10:26:04;;;;;;;;;;;;;;;8.81;100.00;99733.97;5021425;28;19937;-81
2023/10/25 10:28:49;;;;;;;;;;;;;;;8.86;100.00;99732.81;5022349;28;19929;-81
2023/10/25 10:31:42;;;;;;;;;;;;;;;8.91;100.00;99728.16;5040736;28;20025;-80
2023/10/25 10:34:39;;;;;;;;;;;;;;;8.99;100.00;99730.38;5023473;28;19928;-78
2023/10/25 10:37:25;;;;;;;;;;;;;;;9.03;100.00;99726.59;5043419;28;19978;-80
2023/10/25 10:40:11;;;;;;;;;;;;;;;9.08;100.00;99730.69;5021052;28;19955;-81
2023/10/25 10:42:57;;;;;;;;;;;;;;;9.14;100.00;99716.28;5037659;28;19928;-80
2023/10/25 10:45:46;;;;;;;;;;;;;;;9.16;100.00;99719.69;5040397;28;19921;-81
2023/10/25 10:48:35;;;;;;;;;;;;;;;9.20;100.00;99717.72;5020710;28;19929;-80
2023/10/25 10:51:20;;;;;;;;;;;;;;;9.21;100.00;99716.78;5026177;28;20027;-82
2023/10/25 10:54:06;;;;;;;;;;;;;;;9.23;100.00;99712.25;5040478;28;19940;-81
2023/10/25 10:56:52;;;;;;;;;;;;;;;9.26;100.00;99708.59;5040028;28;19947;-80
2023/10/25 10:59:43;;;;;;;;;;;;;;;9.30;100.00;99699.53;5041551;28;20640;-82
2023/10/25 11:02:29;;;;;;;;;;;;;;;9.34;100.00;99701.06;5036473;28;19925;-81
2023/10/25 11:05:15;;;;;;;;;;;;;;;9.38;100.00;99697.31;5038305;28;19929;-82
2023/10/25 11:08:01;;;;;;;;;;;;;;;9.43;100.00;99695.25;5023887;28;19964;-82
2023/10/25 11:10:54;;;;;;;;;;;;;;;9.48;100.00;99697.63;5039056;28;19928;-80
2023/10/25 11:13:40;;;;;;;;;;;;;;;9.50;100.00;99698.38;5038713;28;20030;-81
2023/10/25 11:16:25;;;;;;;;;;;;;;;9.51;100.00;99684.22;5018545;28;19929;-82
2023/10/25 11:19:11;;;;;;;;;;;;;;;9.54;100.00;99683.19;5020990;28;19925;-81
2023/10/25 11:22:00;;;;;;;;;;;;;;;9.55;100.00;99691.03;5038633;28;19929;-81
2023/10/25 11:24:50;;;;;;;;;;;;;;;9.56;100.00;99683.94;5016557;28;20010;-82
2023/10/25 11:27:37;;;;;;;;;;;;;;;9.59;100.00;99678.50;5012734;28;20545;-82
2023/10/25 11:30:23;;;;;;;;;;;;;;;9.59;100.00;99676.69;5021792;28;19933;-81
2023/10/25 11:33:09;;;;;;;;;;;;;;;9.59;100.00;99668.75;5018308;28;20288;-82
2023/10/25 11:35:55;;;;;;;;;;;;;;;9.60;100.00;99664.34;5038502;28;20494;-81
2023/10/25 11:38:44;;;;;;;;;;;;;;;9.63;100.00;99662.34;5025174;28;20326;-82
2023/10/25 11:41:29;;;;;;;;;;;;;;;9.65;100.00;99657.81;5037721;28;19933;-80
2023/10/25 11:44:22;;;;;;;;;;;;;;;9.67;100.00;99648.94;5020330;28;19967;-81
2023/10/25 11:47:13;;;;;;;;;;;;;;;9.68;100.00;99655.94;5017486;28;19924;-82
2023/10/25 11:49:59;;;;;;;;;;;;;;;9.70;100.00;99656.69;5034224;28;19928;-81
2023/10/25 11:52:47;;;;;;;;;;;;;;;9.70;100.00;99654.91;5008832;28;20022;-82
2023/10/25 11:55:32;;;;;;;;;;;;;;;9.73;100.00;99664.44;5023559;28;19959;-82
2023/10/25 11:58:18;;;;;;;;;;;;;;;9.74;100.00;99666.13;5020174;28;19933;-81
2023/10/25 12:01:05;;;;;;;;;;;;;;;9.75;100.00;99655.47;5004213;28;20439;-82
2023/10/25 12:03:50;;;;;;;;;;;;;;;9.78;100.00;99652.66;5022828;28;20067;-81
2023/10/25 12:06:37;;;;;;;;;;;;;;;9.81;100.00;99642.84;5036164;28;20284;-81
2023/10/25 12:09:23;;;;;;;;;;;;;;;9.84;100.00;99637.34;5022975;28;19967;-81
2023/10/25 12:12:11;;;;;;;;;;;;;;;9.86;100.00;99646.88;5033286;28;20067;-82
2023/10/25 12:14:57;;;;;;;;;;;;;;;9.89;100.00;99641.41;5007717;28;19929;-82
2023/10/25 12:17:43;;;;;;;;;;;;;;;9.91;100.00;99642.16;5036724;28;19936;-81
2023/10/25 12:20:29;;;;;;;;;;;;;;;9.92;100.00;99638.56;5013423;28;19936;-81
2023/10/25 12:23:16;;;;;;;;;;;;;;;9.94;100.00;99645.56;5026935;28;19936;-81
2023/10/25 12:26:04;;;;;;;;;;;;;;;9.92;100.00;99638.56;5042508;28;19936;-81
2023/10/25 12:28:50;;;;;;;;;;;;;;;9.92;100.00;99633.28;5045585;28;19916;-81
2023/10/25 12:31:35;;;;;;;;;;;;;;;9.90;100.00;99627.25;5043120;28;19937;-80
2023/10/25 12:34:22;;;;;;;;;;;;;;;9.90;100.00;99637.81;5041199;28;20081;-80
2023/10/25 12:37:08;;;;;;;;;;;;;;;9.88;100.00;99637.09;5042196;28;19925;-81
2023/10/25 12:39:57;;;;;;;;;;;;;;;9.88;100.00;99633.56;5041817;28;20513;-81
2023/10/25 12:42:43;;;;;;;;;;;;;;;9.88;100.00;99636.22;5043822;28;19947;-81
2023/10/25 12:45:29;;;;;;;;;;;;;;;9.88;100.00;99630.94;5028027;28;19933;-82
2023/10/25 12:48:14;;;;;;;;;;;;;;;9.89;100.00;99627.34;5022339;28;20021;-82
2023/10/25 12:51:00;;;;;;;;;;;;;;;9.87;100.00;99619.50;5040959;28;19929;-80
2023/10/25 12:53:46;;;;;;;;;;;;;;;9.88;100.00;99626.50;5043310;28;20281;-81
2023/10/25 12:56:32;;;;;;;;;;;;;;;9.87;100.00;99619.50;5041663;28;19929;-81
2023/10/25 12:59:17;;;;;;;;;;;;;;;9.84;100.00;99622.34;5041393;28;19944;-80
2023/10/25 13:02:03;;;;;;;;;;;;;;;9.81;100.00;99622.50;5039129;28;19939;-78
2023/10/25 13:04:49;;;;;;;;;;;;;;;9.78;100.00;99625.38;5039886;28;19935;-81
2023/10/25 13:07:34;;;;;;;;;;;;;;;9.73;100.00;99623.00;5042109;28;19921;-79
2023/10/25 13:10:20;;;;;;;;;;;;;;;9.71;100.00;99627.53;5007631;28;19929;-80
2023/10/25 13:13:06;;;;;;;;;;;;;;;9.68;100.00;99618.94;5040158;28;20067;-82
2023/10/25 13:15:54;;;;;;;;;;;;;;;9.68;100.00;99613.63;5043167;28;20375;-81
2023/10/25 13:18:42;;;;;;;;;;;;;;;9.64;100.00;99608.56;5025756;28;19928;-81
2023/10/25 13:21:30;;;;;;;;;;;;;;;9.63;100.00;99600.72;5044330;28;19932;-82
2023/10/25 13:24:16;;;;;;;;;;;;;;;9.61;100.00;99598.19;5038123;28;19956;-80
2023/10/25 13:27:01;;;;;;;;;;;;;;;9.62;100.00;99599.88;5045718;28;20011;-80
2023/10/25 13:29:48;;;;;;;;;;;;;;;9.62;100.00;99594.59;5043499;28;19929;-81
2023/10/25 13:32:33;;;;;;;;;;;;;;;9.60;100.00;99596.47;5044246;28;19976;-81
2023/10/25 13:35:19;;;;;;;;;;;;;;;9.59;100.00;99600.06;5024163;28;22051;-81
2023/10/25 13:38:10;;;;;;;;;;;;;;;9.60;100.00;99585.91;5042421;28;19991;-81
2023/10/25 13:40:56;;;;;;;;;;;;;;;9.62;100.00;99594.59;5024053;28;19939;-80
2023/10/25 13:43:41;;;;;;;;;;;;;;;9.62;100.00;99594.59;5021916;28;19981;-82
2023/10/25 13:46:27;;;;;;;;;;;;;;;9.62;100.00;99589.31;5044510;28;19928;-82
2023/10/25 13:49:13;;;;;;;;;;;;;;;9.64;100.00;99589.19;5040163;28;20031;-83
2023/10/25 13:51:58;;;;;;;;;;;;;;;9.63;100.00;99580.44;5022598;28;19929;-82
2023/10/25 13:54:47;;;;;;;;;;;;;;;9.62;100.00;99578.75;5037626;28;19928;-81
2023/10/25 13:57:33;;;;;;;;;;;;;;;9.61;100.00;99574.41;5020630;28;19986;-81
2023/10/25 14:00:19;;;;;;;;;;;;;;;9.61;100.00;99571.75;5009502;28;20030;-81
2023/10/25 14:03:05;;;;;;;;;;;;;;;9.59;100.00;99573.63;5039594;28;19925;-81
2023/10/25 14:05:51;;;;;;;;;;;;;;;9.58;100.00;99571.09;5021373;28;20540;-85
2023/10/25 14:08:37;;;;;;;;;;;;;;;9.55;100.00;99561.56;5040219;28;19931;-83
2023/10/25 14:11:22;;;;;;;;;;;;;;;9.49;100.00;99570.69;5039415;28;19935;-84
2023/10/25 14:14:08;;;;;;;;;;;;;;;9.44;100.00;99575.44;5008163;28;19923;-82
2023/10/25 14:16:54;;;;;;;;;;;;;;;9.44;100.00;99564.00;5039446;28;19935;-81
2023/10/25 14:19:39;;;;;;;;;;;;;;;9.40;100.00;99563.34;5041003;28;19933;-80
2023/10/25 14:22:25;;;;;;;;;;;;;;;9.35;100.00;99562.78;5043411;28;19940;-80
2023/10/25 14:25:10;;;;;;;;;;;;;;;9.32;100.00;99561.16;5037685;28;20054;-80
2023/10/25 14:27:56;;;;;;;;;;;;;;;9.29;100.00;99557.88;5037667;28;19932;-81